createdAt,value
2023-03-27T00:01:30.708Z,0.70
2023-03-27T00:03:59.417Z,0.60
2023-03-27T00:06:28.040Z,0.70
2023-03-27T00:08:58.279Z,0.55
2023-03-27T00:11:26.806Z,0.90
2023-03-27T00:13:55.366Z,0.90
2023-03-27T00:16:24.380Z,1.10
2023-03-27T00:18:53.405Z,0.82
2023-03-27T00:21:22.432Z,0.77
2023-03-27T00:23:51.376Z,0.75
2023-03-27T00:26:24.035Z,1.23
2023-03-27T00:28:52.802Z,1.00
2023-03-27T00:31:21.939Z,0.85
2023-03-27T00:33:50.638Z,0.98
2023-03-27T00:36:23.846Z,0.82
2023-03-27T00:38:53.347Z,1.35
2023-03-27T00:41:23.668Z,0.90
2023-03-27T00:43:54.919Z,0.77
2023-03-27T00:46:35.744Z,1.45
2023-03-27T00:49:05.796Z,0.80
2023-03-27T00:51:34.942Z,0.73
2023-03-27T00:54:03.365Z,0.77
2023-03-27T00:56:39.028Z,0.90
2023-03-27T00:59:12.612Z,1.02
2023-03-27T01:01:41.645Z,0.75
2023-03-27T01:04:11.431Z,0.80
2023-03-27T01:06:42.158Z,0.50
2023-03-27T01:09:11.126Z,0.98
2023-03-27T01:11:54.914Z,1.15
2023-03-27T01:14:28.886Z,1.00
2023-03-27T01:17:07.043Z,0.80
2023-03-27T01:19:47.590Z,0.68
2023-03-27T01:22:33.442Z,0.80
2023-03-27T01:25:30.188Z,0.70
2023-03-27T01:28:14.482Z,0.90
2023-03-27T01:30:49.153Z,0.90
2023-03-27T01:33:34.961Z,1.27
2023-03-27T01:36:26.024Z,0.75
2023-03-27T01:39:07.689Z,0.80
2023-03-27T01:41:41.221Z,1.02
2023-03-27T01:44:13.601Z,0.43
2023-03-27T01:46:44.989Z,0.95
2023-03-27T01:49:17.107Z,1.27
2023-03-27T01:51:48.354Z,0.65
2023-03-27T01:54:21.755Z,0.90
2023-03-27T01:56:53.912Z,0.70
2023-03-27T01:59:27.240Z,0.50
2023-03-27T02:01:58.307Z,0.52
2023-03-27T02:04:31.906Z,0.85
2023-03-27T02:07:02.276Z,1.00
2023-03-27T02:09:34.894Z,0.90
2023-03-27T02:12:11.901Z,0.60
2023-03-27T02:14:42.091Z,0.82
2023-03-27T02:17:15.274Z,0.65
2023-03-27T02:19:48.737Z,1.15
2023-03-27T02:22:17.494Z,0.80
2023-03-27T02:24:55.114Z,0.60
2023-03-27T02:27:26.846Z,1.10
2023-03-27T02:30:00.777Z,0.55
2023-03-27T02:32:35.714Z,1.35
2023-03-27T02:35:10.254Z,1.00
2023-03-27T02:37:46.866Z,0.70
2023-03-27T02:40:20.690Z,1.23
2023-03-27T02:42:59.687Z,1.20
2023-03-27T02:45:32.643Z,0.98
2023-03-27T02:48:03.200Z,1.27
2023-03-27T02:50:36.637Z,0.50
2023-03-27T02:53:15.186Z,1.05
2023-03-27T02:55:47.990Z,1.05
2023-03-27T02:58:19.136Z,0.95
2023-03-27T03:00:56.548Z,0.80
2023-03-27T03:03:35.721Z,0.77
2023-03-27T03:06:14.346Z,0.82
2023-03-27T03:08:47.023Z,0.80
2023-03-27T03:11:19.369Z,0.70
2023-03-27T03:13:57.100Z,0.55
2023-03-27T03:16:26.025Z,0.43
2023-03-27T03:18:54.808Z,0.52
2023-03-27T03:21:25.671Z,0.70
2023-03-27T03:23:57.806Z,1.10
2023-03-27T03:26:30.200Z,0.40
2023-03-27T03:29:00.613Z,0.68
2023-03-27T03:31:43.582Z,0.63
2023-03-27T03:34:12.674Z,0.50
2023-03-27T03:36:42.206Z,0.57
2023-03-27T03:39:12.706Z,0.60
2023-03-27T03:41:43.776Z,0.57
2023-03-27T03:44:12.392Z,0.30
2023-03-27T03:46:43.367Z,0.25
2023-03-27T03:49:11.934Z,0.50
2023-03-27T03:51:41.232Z,0.40
2023-03-27T03:54:10.239Z,0.75
2023-03-27T03:56:41.833Z,1.00
2023-03-27T03:59:12.965Z,0.40
2023-03-27T04:02:01.580Z,0.60
2023-03-27T04:04:33.396Z,0.40
2023-03-27T04:07:11.922Z,0.45
2023-03-27T04:09:46.191Z,0.35
2023-03-27T04:12:19.891Z,0.50
2023-03-27T04:14:59.515Z,0.40
2023-03-27T04:17:48.532Z,0.57
2023-03-27T04:20:17.509Z,0.52
2023-03-27T04:22:48.673Z,0.70
2023-03-27T04:25:24.252Z,0.30
2023-03-27T04:27:57.237Z,0.47
2023-03-27T04:30:37.103Z,0.30
2023-03-27T04:33:19.372Z,0.38
2023-03-27T04:36:11.938Z,0.55
2023-03-27T04:38:48.896Z,0.73
2023-03-27T04:41:19.092Z,1.17
2023-03-27T04:43:47.524Z,0.73
2023-03-27T04:46:19.913Z,0.40
2023-03-27T04:48:56.760Z,0.40
2023-03-27T04:51:43.764Z,0.40
2023-03-27T04:54:15.712Z,0.40
2023-03-27T04:56:48.846Z,0.90
2023-03-27T04:59:18.589Z,1.15
2023-03-27T05:01:58.633Z,0.88
2023-03-27T05:04:44.056Z,0.70
2023-03-27T05:07:17.002Z,1.02
2023-03-27T05:09:48.314Z,1.45
2023-03-27T05:12:19.278Z,0.57
2023-03-27T05:14:59.545Z,1.17
2023-03-27T05:17:53.453Z,1.10
2023-03-27T05:20:25.742Z,0.98
2023-03-27T05:22:54.781Z,0.75
2023-03-27T05:25:30.959Z,0.60
2023-03-27T05:28:01.157Z,0.60
2023-03-27T05:30:35.476Z,0.50
2023-03-27T05:33:20.620Z,0.60
2023-03-27T05:35:49.447Z,0.70
2023-03-27T05:38:18.929Z,0.70
2023-03-27T05:41:11.201Z,0.50
2023-03-27T05:43:45.282Z,0.63
2023-03-27T05:46:20.788Z,0.60
2023-03-27T05:49:06.525Z,0.50
2023-03-27T05:51:36.031Z,2.65
2023-03-27T05:54:04.657Z,0.60
2023-03-27T05:56:43.503Z,0.63
2023-03-27T05:59:14.168Z,0.80
2023-03-27T06:01:44.028Z,0.70
2023-03-27T06:04:16.073Z,1.20
2023-03-27T06:06:56.213Z,0.70
2023-03-27T06:09:25.411Z,1.05
2023-03-27T06:12:32.177Z,0.70
2023-03-27T06:15:14.707Z,0.60
2023-03-27T06:17:51.421Z,0.80
2023-03-27T06:20:25.341Z,0.90
2023-03-27T06:23:09.451Z,0.70
2023-03-27T06:25:39.445Z,0.60
2023-03-27T06:28:12.445Z,1.05
2023-03-27T06:30:46.312Z,0.73
2023-03-27T06:33:30.889Z,0.90
2023-03-27T06:36:03.658Z,1.08
2023-03-27T06:38:34.041Z,1.50
2023-03-27T06:41:04.402Z,1.35
2023-03-27T06:43:56.026Z,0.90
2023-03-27T06:46:45.379Z,1.30
2023-03-27T06:49:29.455Z,1.00
2023-03-27T06:52:00.006Z,0.80
2023-03-27T06:54:31.016Z,0.85
2023-03-27T06:57:09.031Z,0.90
2023-03-27T06:59:50.830Z,0.70
2023-03-27T07:02:24.293Z,0.70
2023-03-27T07:05:04.326Z,0.88
2023-03-27T07:07:49.406Z,0.85
2023-03-27T07:10:21.821Z,0.93
2023-03-27T07:12:51.180Z,0.50
2023-03-27T07:15:21.265Z,0.50
2023-03-27T07:17:54.708Z,0.75
2023-03-27T07:20:24.062Z,0.30
2023-03-27T07:22:58.603Z,0.50
2023-03-27T07:25:49.087Z,0.57
2023-03-27T07:28:34.730Z,0.70
2023-03-27T07:33:54.205Z,0.47
2023-03-27T07:36:48.540Z,0.70
2023-03-27T07:39:31.901Z,0.63
2023-03-27T07:42:08.012Z,0.63
2023-03-27T07:45:18.139Z,0.65
2023-03-27T07:47:50.416Z,0.75
2023-03-27T07:50:22.215Z,0.70
2023-03-27T07:52:51.404Z,0.88
2023-03-27T07:55:23.165Z,0.22
2023-03-27T07:58:03.193Z,0.73
2023-03-27T08:00:39.032Z,0.80
2023-03-27T08:03:17.643Z,0.52
2023-03-27T08:05:57.838Z,0.20
2023-03-27T08:08:30.952Z,0.32
2023-03-27T08:11:19.513Z,0.63
2023-03-27T08:13:58.636Z,1.00
2023-03-27T08:16:30.175Z,0.47
2023-03-27T08:19:03.094Z,0.63
2023-03-27T08:21:33.410Z,0.88
2023-03-27T08:24:04.999Z,0.73
2023-03-27T08:26:38.680Z,0.70
2023-03-27T08:29:11.236Z,0.63
2023-03-27T08:31:40.361Z,0.90
2023-03-27T08:34:09.200Z,0.90
2023-03-27T08:36:48.302Z,0.80
2023-03-27T08:39:17.944Z,0.95
2023-03-27T08:42:01.556Z,1.05
2023-03-27T08:44:34.720Z,0.60
2023-03-27T08:47:13.102Z,0.63
2023-03-27T08:49:52.147Z,0.55
2023-03-27T08:52:43.335Z,0.63
2023-03-27T08:55:20.644Z,0.77
2023-03-27T08:58:03.876Z,0.73
2023-03-27T09:00:35.423Z,0.82
2023-03-27T09:03:28.751Z,1.00
2023-03-27T09:05:59.473Z,0.55
2023-03-27T09:08:34.248Z,0.70
2023-03-27T09:11:06.810Z,0.75
2023-03-27T09:13:47.531Z,0.57
2023-03-27T09:16:19.974Z,0.50
2023-03-27T09:18:54.440Z,0.95
2023-03-27T09:21:33.415Z,0.98
2023-03-27T09:24:14.410Z,0.55
2023-03-27T09:27:18.763Z,0.50
2023-03-27T09:30:06.233Z,0.70
2023-03-27T09:32:52.737Z,0.47
2023-03-27T09:35:24.972Z,0.43
2023-03-27T09:37:58.555Z,0.43
2023-03-27T09:40:33.866Z,0.70
2023-03-27T09:43:09.976Z,0.60
2023-03-27T09:45:45.030Z,0.30
2023-03-27T09:48:19.163Z,0.40
2023-03-27T09:50:49.403Z,0.35
2023-03-27T09:53:43.170Z,0.30
2023-03-27T09:56:20.476Z,0.63
2023-03-27T09:58:55.087Z,0.40
2023-03-27T10:01:30.901Z,0.35
2023-03-27T10:04:23.016Z,1.02
2023-03-27T10:07:01.781Z,0.45
2023-03-27T10:10:12.303Z,0.20
2023-03-27T10:13:00.687Z,0.20
2023-03-27T10:15:51.764Z,0.20
2023-03-27T10:18:32.268Z,0.70
2023-03-27T10:21:18.480Z,0.50
2023-03-27T10:23:49.490Z,0.65
2023-03-27T10:26:38.838Z,0.65
2023-03-27T10:29:17.993Z,1.00
2023-03-27T10:31:54.029Z,1.15
2023-03-27T10:34:52.725Z,0.77
2023-03-27T10:37:50.216Z,0.77
2023-03-27T10:40:38.943Z,1.15
2023-03-27T10:43:14.728Z,1.00
2023-03-27T10:45:47.999Z,0.60
2023-03-27T10:48:23.529Z,0.68
2023-03-27T10:50:57.944Z,0.90
2023-03-27T10:53:54.948Z,0.45
2023-03-27T10:56:36.720Z,0.82
2023-03-27T10:59:10.332Z,0.45
2023-03-27T11:01:42.779Z,0.68
2023-03-27T11:04:16.534Z,0.70
2023-03-27T11:06:53.633Z,0.22
2023-03-27T11:09:24.486Z,0.57
2023-03-27T11:12:11.693Z,0.80
2023-03-27T11:14:57.526Z,1.13
2023-03-27T11:17:33.220Z,0.63
2023-03-27T11:20:34.776Z,0.60
2023-03-27T11:23:38.813Z,0.80
2023-03-27T11:26:27.967Z,1.77
2023-03-27T11:29:00.226Z,0.77
2023-03-27T11:31:40.235Z,0.95
2023-03-27T11:34:15.433Z,0.68
2023-03-27T11:37:05.819Z,0.55
2023-03-27T11:39:45.555Z,0.70
2023-03-27T11:42:21.234Z,1.05
2023-03-27T11:44:50.891Z,0.65
2023-03-27T11:47:43.603Z,0.70
2023-03-27T11:50:23.287Z,0.60
2023-03-27T11:53:05.726Z,1.13
2023-03-27T11:56:05.999Z,0.55
2023-03-27T11:58:41.866Z,0.95
2023-03-27T12:01:16.620Z,1.15
2023-03-27T12:03:57.908Z,0.60
2023-03-27T12:06:44.764Z,0.80
2023-03-27T12:09:26.050Z,1.00
2023-03-27T12:12:31.112Z,0.68
2023-03-27T12:15:10.661Z,1.13
2023-03-27T12:17:46.729Z,0.55
2023-03-27T12:20:43.648Z,0.32
2023-03-27T12:23:28.273Z,0.60
2023-03-27T12:26:21.965Z,1.27
2023-03-27T12:29:24.450Z,0.77
2023-03-27T12:32:10.189Z,0.70
2023-03-27T12:34:50.381Z,0.70
2023-03-27T12:37:22.151Z,0.68
2023-03-27T12:39:52.174Z,0.77
2023-03-27T12:42:43.937Z,1.38
2023-03-27T12:45:18.148Z,1.10
2023-03-27T12:48:10.180Z,0.50
2023-03-27T12:50:48.248Z,0.70
2023-03-27T12:53:48.779Z,0.40
2023-03-27T12:56:30.175Z,0.47
2023-03-27T12:59:06.229Z,1.05
2023-03-27T13:01:59.772Z,0.82
2023-03-27T13:04:35.174Z,0.50
2023-03-27T13:07:10.737Z,1.25
2023-03-27T13:10:12.628Z,0.65
2023-03-27T13:12:56.041Z,0.63
2023-03-27T13:15:38.091Z,1.08
2023-03-27T13:18:18.578Z,1.00
2023-03-27T13:20:50.854Z,0.82
2023-03-27T13:23:45.795Z,0.90
2023-03-27T13:26:29.780Z,0.75
2023-03-27T13:29:00.264Z,0.90
2023-03-27T13:31:49.936Z,0.73
2023-03-27T13:34:35.109Z,0.93
2023-03-27T13:37:25.996Z,0.68
2023-03-27T13:40:31.631Z,1.00
2023-03-27T13:43:23.059Z,1.05
2023-03-27T13:46:00.087Z,0.98
2023-03-27T13:49:00.698Z,1.13
2023-03-27T13:51:50.325Z,0.95
2023-03-27T13:54:38.318Z,1.05
2023-03-27T13:57:17.246Z,1.58
2023-03-27T14:00:14.270Z,0.93
2023-03-27T14:03:04.422Z,1.23
2023-03-27T14:06:03.944Z,0.63
2023-03-27T14:08:47.318Z,0.57
2023-03-27T14:11:39.597Z,0.55
2023-03-27T14:14:28.859Z,0.82
2023-03-27T14:17:22.594Z,0.38
2023-03-27T14:20:08.993Z,0.68
2023-03-27T14:22:45.702Z,0.40
2023-03-27T14:25:16.985Z,0.70
2023-03-27T14:27:59.843Z,0.55
2023-03-27T14:30:29.474Z,0.82
2023-03-27T14:33:20.299Z,0.55
2023-03-27T14:36:05.649Z,1.02
2023-03-27T14:38:39.227Z,0.90
2023-03-27T14:41:25.672Z,0.75
2023-03-27T14:44:04.104Z,0.57
2023-03-27T14:46:36.419Z,1.10
2023-03-27T14:49:15.033Z,0.68
2023-03-27T14:51:47.438Z,1.02
2023-03-27T14:54:44.607Z,0.50
2023-03-27T14:57:19.322Z,0.50
2023-03-27T14:59:55.649Z,0.77
2023-03-27T15:02:30.446Z,1.00
2023-03-27T15:05:04.458Z,0.65
2023-03-27T15:07:35.294Z,0.80
2023-03-27T15:10:33.221Z,0.80
2023-03-27T15:13:15.287Z,0.82
2023-03-27T15:15:50.443Z,0.63
2023-03-27T15:18:24.859Z,0.80
2023-03-27T15:20:55.109Z,0.55
2023-03-27T15:23:26.424Z,0.57
2023-03-27T15:25:59.136Z,0.57
2023-03-27T15:28:31.696Z,0.52
2023-03-27T15:31:03.333Z,0.60
2023-03-27T15:33:36.674Z,0.52
2023-03-27T15:36:06.977Z,1.23
2023-03-27T15:38:38.203Z,0.80
2023-03-27T15:41:21.439Z,0.60
2023-03-27T15:43:53.165Z,1.00
2023-03-27T15:46:26.518Z,1.13
2023-03-27T15:48:57.531Z,0.57
2023-03-27T15:51:30.222Z,0.82
2023-03-27T15:54:05.335Z,0.95
2023-03-27T15:56:39.015Z,0.93
2023-03-27T15:59:11.856Z,0.43
2023-03-27T16:01:42.309Z,1.13
2023-03-27T16:04:16.513Z,0.50
2023-03-27T16:06:48.416Z,0.57
2023-03-27T16:09:22.824Z,0.90
2023-03-27T16:11:52.977Z,1.02
2023-03-27T16:14:24.727Z,0.70
2023-03-27T16:16:58.422Z,0.55
2023-03-27T16:19:26.896Z,0.63
2023-03-27T16:21:56.267Z,0.80
2023-03-27T16:24:24.813Z,0.68
2023-03-27T16:26:55.769Z,0.50
2023-03-27T16:29:25.676Z,1.10
2023-03-27T16:31:54.427Z,0.60
2023-03-27T16:34:23.748Z,1.10
2023-03-27T16:36:54.735Z,0.77
2023-03-27T16:39:31.402Z,0.77
2023-03-27T16:42:00.153Z,0.50
2023-03-27T16:44:32.454Z,0.93
2023-03-27T16:47:07.952Z,1.13
2023-03-27T16:49:37.654Z,0.60
2023-03-27T16:52:06.360Z,0.68
2023-03-27T16:54:34.902Z,0.50
2023-03-27T16:57:03.584Z,0.63
2023-03-27T16:59:33.488Z,0.65
2023-03-27T17:02:02.036Z,0.50
2023-03-27T17:04:33.054Z,0.60
2023-03-27T17:07:01.803Z,1.38
2023-03-27T17:09:30.394Z,0.60
2023-03-27T17:11:58.829Z,0.70
2023-03-27T17:14:27.400Z,0.50
2023-03-27T17:16:57.140Z,0.70
2023-03-27T17:19:25.551Z,1.02
2023-03-27T17:21:56.702Z,0.57
2023-03-27T17:24:27.032Z,1.25
2023-03-27T17:26:55.765Z,0.80
2023-03-27T17:29:24.156Z,0.85
2023-03-27T17:31:52.616Z,1.17
2023-03-27T17:34:22.588Z,0.55
2023-03-27T17:36:54.653Z,0.93
2023-03-27T17:39:26.927Z,0.73
2023-03-27T17:41:57.763Z,1.33
2023-03-27T17:44:28.653Z,0.60
2023-03-27T17:46:57.104Z,0.40
2023-03-27T17:49:27.915Z,0.90
2023-03-27T17:51:56.486Z,0.60
2023-03-27T17:54:25.063Z,0.57
2023-03-27T17:56:53.710Z,0.55
2023-03-27T17:59:22.282Z,0.20
2023-03-27T18:01:50.944Z,0.52
2023-03-27T18:04:21.729Z,0.82
2023-03-27T18:06:51.641Z,0.70
2023-03-27T18:09:20.133Z,0.40
2023-03-27T18:11:51.292Z,0.70
2023-03-27T18:14:22.102Z,1.45
2023-03-27T18:16:52.565Z,1.88
2023-03-27T18:19:21.014Z,1.20
2023-03-27T18:21:50.804Z,0.75
2023-03-27T18:24:19.418Z,1.35
2023-03-27T18:26:48.149Z,1.20
2023-03-27T18:29:16.583Z,0.68
2023-03-27T18:31:45.155Z,1.30
2023-03-27T18:34:14.085Z,1.08
2023-03-27T18:36:42.454Z,1.35
2023-03-27T18:39:12.468Z,0.77
2023-03-27T18:41:45.090Z,0.80
2023-03-27T18:44:18.430Z,1.25
2023-03-27T18:46:46.938Z,1.10
2023-03-27T18:49:24.313Z,1.17
2023-03-27T18:51:56.167Z,0.90
2023-03-27T18:54:26.264Z,0.88
2023-03-27T18:56:54.888Z,1.00
2023-03-27T18:59:23.364Z,0.80
2023-03-27T19:01:51.897Z,1.08
2023-03-27T19:04:20.530Z,1.02
2023-03-27T19:06:49.076Z,0.80
2023-03-27T19:09:18.690Z,0.88
2023-03-27T19:11:48.723Z,0.70
2023-03-27T19:14:35.756Z,0.93
2023-03-27T19:17:29.612Z,0.60
2023-03-27T19:20:15.424Z,1.05
2023-03-27T19:23:03.844Z,0.80
2023-03-27T19:25:35.936Z,1.30
2023-03-27T19:28:09.385Z,1.30
2023-03-27T19:30:37.906Z,1.10
2023-03-27T19:33:06.749Z,1.92
2023-03-27T19:35:35.317Z,1.10
2023-03-27T19:38:04.046Z,1.00
2023-03-27T19:40:32.984Z,1.50
2023-03-27T19:43:01.370Z,1.80
2023-03-27T19:45:31.213Z,1.15
2023-03-27T19:47:59.808Z,1.60
2023-03-27T19:50:28.258Z,1.45
2023-03-27T19:53:13.301Z,1.92
2023-03-27T19:55:46.459Z,2.35
2023-03-27T19:58:15.254Z,2.15
2023-03-27T20:00:50.756Z,1.70
2023-03-27T20:03:24.423Z,1.40
2023-03-27T20:06:07.611Z,2.00
2023-03-27T20:08:39.180Z,1.77
2023-03-27T20:11:12.207Z,1.20
2023-03-27T20:13:53.012Z,1.95
2023-03-27T20:16:24.265Z,1.10
2023-03-27T20:19:03.654Z,1.20
2023-03-27T20:21:35.141Z,1.67
2023-03-27T20:24:09.974Z,1.85
2023-03-27T20:26:41.628Z,1.70
2023-03-27T20:29:16.256Z,1.38
2023-03-27T20:31:48.154Z,1.27
2023-03-27T20:34:19.643Z,1.33
2023-03-27T20:36:48.708Z,1.45
2023-03-27T20:39:33.637Z,1.20
2023-03-27T20:42:07.923Z,1.20
2023-03-27T20:44:39.291Z,0.82
2023-03-27T20:47:12.462Z,1.33
2023-03-27T20:49:46.952Z,1.20
2023-03-27T20:52:16.368Z,1.20
2023-03-27T20:54:44.879Z,1.92
2023-03-27T20:57:16.896Z,1.55
2023-03-27T20:59:47.536Z,1.95
2023-03-27T21:02:21.847Z,1.25
2023-03-27T21:04:50.598Z,1.30
2023-03-27T21:07:19.341Z,1.10
2023-03-27T21:09:48.100Z,1.77
2023-03-27T21:12:16.580Z,1.48
2023-03-27T21:14:45.285Z,1.60
2023-03-27T21:17:14.160Z,2.05
2023-03-27T21:19:43.958Z,1.33
2023-03-27T21:22:12.439Z,1.95
2023-03-27T21:24:41.949Z,1.67
2023-03-27T21:27:13.088Z,1.40
2023-03-27T21:29:41.576Z,2.22
2023-03-27T21:32:10.464Z,1.52
2023-03-27T21:34:39.276Z,0.88
2023-03-27T21:37:11.391Z,1.77
2023-03-27T21:39:40.020Z,1.17
2023-03-27T21:42:09.057Z,0.98
2023-03-27T21:44:37.837Z,1.50
2023-03-27T21:47:10.284Z,1.10
2023-03-27T21:49:39.179Z,1.50
2023-03-27T21:52:09.067Z,2.30
2023-03-27T21:54:47.435Z,2.67
2023-03-27T21:57:26.181Z,2.83
2023-03-27T21:59:54.917Z,2.40
2023-03-27T22:02:25.945Z,2.75
2023-03-27T22:04:55.752Z,3.05
2023-03-27T22:07:27.661Z,3.35
2023-03-27T22:09:56.006Z,2.03
2023-03-27T22:12:24.572Z,2.47
2023-03-27T22:14:53.011Z,2.95
2023-03-27T22:17:21.757Z,2.80
2023-03-27T22:19:51.288Z,3.88
2023-03-27T22:22:19.717Z,2.80
2023-03-27T22:24:49.448Z,3.00
2023-03-27T22:27:17.901Z,2.65
2023-03-27T22:29:46.299Z,2.83
2023-03-27T22:32:14.656Z,3.22
2023-03-27T22:34:43.312Z,2.35
2023-03-27T22:37:11.666Z,1.75
2023-03-27T22:39:40.226Z,2.00
2023-03-27T22:42:10.425Z,1.75
2023-03-27T22:44:41.070Z,2.20
2023-03-27T22:47:12.084Z,1.55
2023-03-27T22:49:48.181Z,1.92
2023-03-27T22:52:16.822Z,1.42
2023-03-27T22:54:45.499Z,2.10
2023-03-27T22:57:15.417Z,1.67
2023-03-27T22:59:44.188Z,1.60
2023-03-27T23:02:12.842Z,1.60
2023-03-27T23:04:43.614Z,1.20
2023-03-27T23:07:12.309Z,1.70
2023-03-27T23:09:41.115Z,1.77
2023-03-27T23:12:12.236Z,1.45
2023-03-27T23:14:45.065Z,1.75
2023-03-27T23:17:15.867Z,1.30
2023-03-27T23:19:44.541Z,1.48
2023-03-27T23:22:12.970Z,0.95
2023-03-27T23:24:41.439Z,1.00
2023-03-27T23:27:12.385Z,1.55
2023-03-27T23:29:42.479Z,1.67
2023-03-27T23:32:13.679Z,1.35
2023-03-27T23:34:44.422Z,1.98
2023-03-27T23:37:12.902Z,1.35
2023-03-27T23:39:48.347Z,1.73
2023-03-27T23:42:16.861Z,1.33
2023-03-27T23:44:46.736Z,1.33
2023-03-27T23:47:15.387Z,1.52
2023-03-27T23:49:46.129Z,1.50
2023-03-27T23:52:16.713Z,1.30
2023-03-27T23:54:47.567Z,1.60
2023-03-27T23:57:18.320Z,1.83
2023-03-27T23:59:48.358Z,1.45
